sensor_id;sensor_type;location;lat;lon;timestamp;pressure;altitude;pressure_sealevel;temperature;humidity
7760;BME280;3924;48.830;9.262;2023-07-13T00:00:09;98485.16;;;21.88;54.57
7760;BME280;3924;48.830;9.262;2023-07-13T00:02:36;98485.47;;;21.83;54.85
7760;BME280;3924;48.830;9.262;2023-07-13T00:05:03;98483.03;;;21.78;54.75
7760;BME280;3924;48.830;9.262;2023-07-13T00:07:30;98482.91;;;21.71;54.75
7760;BME280;3924;48.830;9.262;2023-07-13T00:09:57;98476.50;;;21.67;54.97
7760;BME280;3924;48.830;9.262;2023-07-13T00:12:29;98481.47;;;21.57;54.89
7760;BME280;3924;48.830;9.262;2023-07-13T00:15:00;98483.69;;;21.48;54.99
7760;BME280;3924;48.830;9.262;2023-07-13T00:17:27;98486.78;;;21.47;54.86
7760;BME280;3924;48.830;9.262;2023-07-13T00:19:55;98489.13;;;21.45;54.90
7760;BME280;3924;48.830;9.262;2023-07-13T00:22:23;98486.75;;;21.43;55.00
7760;BME280;3924;48.830;9.262;2023-07-13T00:24:53;98489.00;;;21.38;55.14
7760;BME280;3924;48.830;9.262;2023-07-13T00:27:23;98494.44;;;21.34;55.07
7760;BME280;3924;48.830;9.262;2023-07-13T00:29:49;98488.75;;;21.27;55.28
7760;BME280;3924;48.830;9.262;2023-07-13T00:32:16;98488.28;;;21.21;55.19
7760;BME280;3924;48.830;9.262;2023-07-13T00:34:43;98483.06;;;21.16;55.24
7760;BME280;3924;48.830;9.262;2023-07-13T00:37:09;98490.81;;;21.11;55.41
7760;BME280;3924;48.830;9.262;2023-07-13T00:39:37;98489.94;;;21.07;55.56
7760;BME280;3924;48.830;9.262;2023-07-13T00:42:05;98489.00;;;20.99;55.57
7760;BME280;3924;48.830;9.262;2023-07-13T00:44:33;98487.34;;;20.94;55.68
7760;BME280;3924;48.830;9.262;2023-07-13T00:47:00;98497.91;;;20.92;55.50
7760;BME280;3924;48.830;9.262;2023-07-13T00:49:29;98495.97;;;20.93;55.45
7760;BME280;3924;48.830;9.262;2023-07-13T00:52:01;98494.03;;;20.93;55.75
7760;BME280;3924;48.830;9.262;2023-07-13T00:54:35;98495.09;;;20.89;55.53
7760;BME280;3924;48.830;9.262;2023-07-13T00:57:08;98503.00;;;20.90;55.42
7760;BME280;3924;48.830;9.262;2023-07-13T00:59:37;98505.34;;;20.88;55.59
7760;BME280;3924;48.830;9.262;2023-07-13T01:02:05;98501.31;;;20.86;55.41
7760;BME280;3924;48.830;9.262;2023-07-13T01:04:32;98508.47;;;20.87;55.46
7760;BME280;3924;48.830;9.262;2023-07-13T01:06:59;98523.03;;;20.87;55.37
7760;BME280;3924;48.830;9.262;2023-07-13T01:09:27;98516.72;;;20.87;55.54
7760;BME280;3924;48.830;9.262;2023-07-13T01:11:53;98522.56;;;20.85;55.74
7760;BME280;3924;48.830;9.262;2023-07-13T01:14:20;98510.69;;;20.81;55.93
7760;BME280;3924;48.830;9.262;2023-07-13T01:16:47;98513.00;;;20.79;55.83
7760;BME280;3924;48.830;9.262;2023-07-13T01:19:26;98519.66;;;20.78;55.59
7760;BME280;3924;48.830;9.262;2023-07-13T01:22:04;98520.56;;;20.82;55.47
7760;BME280;3924;48.830;9.262;2023-07-13T01:24:31;98516.63;;;20.83;55.82
7760;BME280;3924;48.830;9.262;2023-07-13T01:26:57;98520.56;;;20.82;55.69
7760;BME280;3924;48.830;9.262;2023-07-13T01:29:24;98517.72;;;20.79;55.83
7760;BME280;3924;48.830;9.262;2023-07-13T01:31:50;98524.03;;;20.79;55.59
7760;BME280;3924;48.830;9.262;2023-07-13T01:34:17;98521.72;;;20.81;55.80
7760;BME280;3924;48.830;9.262;2023-07-13T01:36:43;98528.03;;;20.82;55.86
7760;BME280;3924;48.830;9.262;2023-07-13T01:39:10;98521.72;;;20.81;56.04
7760;BME280;3924;48.830;9.262;2023-07-13T01:41:36;98533.91;;;20.80;55.79
7760;BME280;3924;48.830;9.262;2023-07-13T01:44:03;98529.38;;;20.72;55.81
7760;BME280;3924;48.830;9.262;2023-07-13T01:46:29;98530.91;;;20.69;56.09
7760;BME280;3924;48.830;9.262;2023-07-13T01:48:56;98525.66;;;20.64;55.86
7760;BME280;3924;48.830;9.262;2023-07-13T01:51:23;98529.84;;;20.58;56.00
7760;BME280;3924;48.830;9.262;2023-07-13T01:53:50;98529.69;;;20.51;56.17
7760;BME280;3924;48.830;9.262;2023-07-13T01:56:17;98536.97;;;20.43;56.14
7760;BME280;3924;48.830;9.262;2023-07-13T01:58:44;98516.84;;;20.39;56.26
7760;BME280;3924;48.830;9.262;2023-07-13T02:01:11;98526.69;;;20.40;56.23
7760;BME280;3924;48.830;9.262;2023-07-13T02:03:38;98535.31;;;20.39;56.11
7760;BME280;3924;48.830;9.262;2023-07-13T02:06:04;98528.66;;;20.40;56.03
7760;BME280;3924;48.830;9.262;2023-07-13T02:08:32;98538.88;;;20.39;56.03
7760;BME280;3924;48.830;9.262;2023-07-13T02:11:00;98523.94;;;20.40;56.00
7760;BME280;3924;48.830;9.262;2023-07-13T02:13:27;98532.56;;;20.39;55.91
7760;BME280;3924;48.830;9.262;2023-07-13T02:15:53;98525.38;;;20.34;56.00
7760;BME280;3924;48.830;9.262;2023-07-13T02:18:20;98530.06;;;20.34;56.21
7760;BME280;3924;48.830;9.262;2023-07-13T02:20:46;98529.66;;;20.32;55.82
7760;BME280;3924;48.830;9.262;2023-07-13T02:23:13;98529.19;;;20.30;55.99
7760;BME280;3924;48.830;9.262;2023-07-13T02:25:39;98527.94;;;20.27;55.98
7760;BME280;3924;48.830;9.262;2023-07-13T02:28:06;98527.84;;;20.23;55.86
7760;BME280;3924;48.830;9.262;2023-07-13T02:30:34;98529.81;;;20.23;56.05
7760;BME280;3924;48.830;9.262;2023-07-13T02:33:01;98529.47;;;20.25;55.95
7760;BME280;3924;48.830;9.262;2023-07-13T02:35:28;98541.72;;;20.27;55.91
7760;BME280;3924;48.830;9.262;2023-07-13T02:37:54;98540.19;;;20.30;55.77
7760;BME280;3924;48.830;9.262;2023-07-13T02:40:21;98543.41;;;20.32;55.88
7760;BME280;3924;48.830;9.262;2023-07-13T02:42:48;98543.75;;;20.30;55.93
7760;BME280;3924;48.830;9.262;2023-07-13T02:45:15;98545.63;;;20.26;56.09
7760;BME280;3924;48.830;9.262;2023-07-13T02:47:41;98543.94;;;20.21;56.12
7760;BME280;3924;48.830;9.262;2023-07-13T02:50:08;98553.25;;;20.17;56.09
7760;BME280;3924;48.830;9.262;2023-07-13T02:52:35;98552.38;;;20.13;56.45
7760;BME280;3924;48.830;9.262;2023-07-13T02:55:01;98553.09;;;20.10;56.53
7760;BME280;3924;48.830;9.262;2023-07-13T02:57:29;98555.41;;;20.08;56.51
7760;BME280;3924;48.830;9.262;2023-07-13T02:59:56;98563.22;;;20.06;56.80
7760;BME280;3924;48.830;9.262;2023-07-13T03:02:23;98567.94;;;20.05;57.13
7760;BME280;3924;48.830;9.262;2023-07-13T03:04:49;98568.63;;;20.02;57.14
7760;BME280;3924;48.830;9.262;2023-07-13T03:07:16;98562.25;;;19.98;57.05
7760;BME280;3924;48.830;9.262;2023-07-13T03:09:43;98570.31;;;19.91;57.37
7760;BME280;3924;48.830;9.262;2023-07-13T03:12:09;98559.22;;;19.87;57.65
7760;BME280;3924;48.830;9.262;2023-07-13T03:14:36;98564.28;;;19.85;57.27
7760;BME280;3924;48.830;9.262;2023-07-13T03:17:03;98571.38;;;19.86;57.70
7760;BME280;3924;48.830;9.262;2023-07-13T03:19:29;98571.72;;;19.85;57.78
7760;BME280;3924;48.830;9.262;2023-07-13T03:21:56;98568.25;;;19.88;57.72
7760;BME280;3924;48.830;9.262;2023-07-13T03:24:22;98565.25;;;19.93;57.77
7760;BME280;3924;48.830;9.262;2023-07-13T03:26:52;98583.09;;;19.99;57.54
7760;BME280;3924;48.830;9.262;2023-07-13T03:29:19;98585.13;;;20.02;57.23
7760;BME280;3924;48.830;9.262;2023-07-13T03:31:45;98588.34;;;20.04;57.29
7760;BME280;3924;48.830;9.262;2023-07-13T03:34:11;98590.38;;;20.07;57.74
7760;BME280;3924;48.830;9.262;2023-07-13T03:36:38;98585.41;;;20.13;57.32
7760;BME280;3924;48.830;9.262;2023-07-13T03:39:05;98593.41;;;20.18;57.05
7760;BME280;3924;48.830;9.262;2023-07-13T03:41:35;98593.13;;;20.23;57.29
7760;BME280;3924;48.830;9.262;2023-07-13T03:44:02;98595.88;;;20.23;57.22
7760;BME280;3924;48.830;9.262;2023-07-13T03:46:28;98605.75;;;20.24;57.16
7760;BME280;3924;48.830;9.262;2023-07-13T03:48:55;98599.81;;;20.22;57.16
7760;BME280;3924;48.830;9.262;2023-07-13T03:51:22;98598.19;;;20.21;57.12
7760;BME280;3924;48.830;9.262;2023-07-13T03:53:49;98604.59;;;20.25;57.05
7760;BME280;3924;48.830;9.262;2023-07-13T03:56:16;98604.69;;;20.29;56.68
7760;BME280;3924;48.830;9.262;2023-07-13T03:58:45;98605.41;;;20.26;56.59
7760;BME280;3924;48.830;9.262;2023-07-13T04:01:14;98611.72;;;20.26;56.53
7760;BME280;3924;48.830;9.262;2023-07-13T04:03:41;98614.00;;;20.24;56.65
7760;BME280;3924;48.830;9.262;2023-07-13T04:06:19;98606.09;;;20.22;56.67
7760;BME280;3924;48.830;9.262;2023-07-13T04:08:55;98615.44;;;20.18;56.60
7760;BME280;3924;48.830;9.262;2023-07-13T04:11:24;98611.97;;;20.21;56.46
7760;BME280;3924;48.830;9.262;2023-07-13T04:13:51;98610.38;;;20.20;56.48
7760;BME280;3924;48.830;9.262;2023-07-13T04:16:19;98602.47;;;20.18;56.22
7760;BME280;3924;48.830;9.262;2023-07-13T04:18:46;98609.13;;;20.17;56.20
7760;BME280;3924;48.830;9.262;2023-07-13T04:21:14;98612.22;;;20.16;56.32
7760;BME280;3924;48.830;9.262;2023-07-13T04:23:40;98612.69;;;20.18;56.19
7760;BME280;3924;48.830;9.262;2023-07-13T04:26:07;98613.13;;;20.20;56.04
7760;BME280;3924;48.830;9.262;2023-07-13T04:28:34;98613.94;;;20.20;55.93
7760;BME280;3924;48.830;9.262;2023-07-13T04:31:02;98613.13;;;20.20;55.74
7760;BME280;3924;48.830;9.262;2023-07-13T04:33:28;98616.31;;;20.22;55.92
7760;BME280;3924;48.830;9.262;2023-07-13T04:35:55;98625.75;;;20.21;56.06
7760;BME280;3924;48.830;9.262;2023-07-13T04:38:29;98620.94;;;20.18;55.72
7760;BME280;3924;48.830;9.262;2023-07-13T04:40:59;98612.69;;;20.18;55.69
7760;BME280;3924;48.830;9.262;2023-07-13T04:43:27;98621.81;;;20.22;55.87
7760;BME280;3924;48.830;9.262;2023-07-13T04:45:54;98629.41;;;20.25;55.47
7760;BME280;3924;48.830;9.262;2023-07-13T04:48:21;98624.16;;;20.20;55.80
7760;BME280;3924;48.830;9.262;2023-07-13T04:50:54;98625.31;;;20.19;55.72
7760;BME280;3924;48.830;9.262;2023-07-13T04:53:21;98624.41;;;20.15;55.76
7760;BME280;3924;48.830;9.262;2023-07-13T04:55:47;98627.94;;;20.15;55.75
7760;BME280;3924;48.830;9.262;2023-07-13T04:58:14;98628.75;;;20.16;56.03
7760;BME280;3924;48.830;9.262;2023-07-13T05:00:41;98633.38;;;20.12;55.89
7760;BME280;3924;48.830;9.262;2023-07-13T05:03:07;98630.16;;;20.10;55.94
7760;BME280;3924;48.830;9.262;2023-07-13T05:05:34;98634.97;;;20.13;55.95
7760;BME280;3924;48.830;9.262;2023-07-13T05:08:00;98631.50;;;20.16;55.84
7760;BME280;3924;48.830;9.262;2023-07-13T05:10:27;98629.53;;;20.16;56.04
7760;BME280;3924;48.830;9.262;2023-07-13T05:12:53;98631.50;;;20.16;55.68
7760;BME280;3924;48.830;9.262;2023-07-13T05:15:21;98645.38;;;20.19;55.66
7760;BME280;3924;48.830;9.262;2023-07-13T05:17:49;98641.28;;;20.29;55.36
7760;BME280;3924;48.830;9.262;2023-07-13T05:20:17;98641.91;;;20.38;55.16
7760;BME280;3924;48.830;9.262;2023-07-13T05:22:43;98645.75;;;20.49;54.98
7760;BME280;3924;48.830;9.262;2023-07-13T05:25:10;98644.88;;;20.61;54.75
7760;BME280;3924;48.830;9.262;2023-07-13T05:27:38;98642.91;;;20.62;54.66
7760;BME280;3924;48.830;9.262;2023-07-13T05:30:05;98641.31;;;20.61;54.63
7760;BME280;3924;48.830;9.262;2023-07-13T05:32:33;98643.09;;;20.53;54.62
7760;BME280;3924;48.830;9.262;2023-07-13T05:34:59;98643.00;;;20.49;54.69
7760;BME280;3924;48.830;9.262;2023-07-13T05:37:26;98649.91;;;20.43;54.64
7760;BME280;3924;48.830;9.262;2023-07-13T05:39:52;98641.19;;;20.41;54.63
7760;BME280;3924;48.830;9.262;2023-07-13T05:42:18;98636.06;;;20.40;54.85
7760;BME280;3924;48.830;9.262;2023-07-13T05:44:45;98632.41;;;20.36;54.78
7760;BME280;3924;48.830;9.262;2023-07-13T05:47:12;98639.16;;;20.38;54.93
7760;BME280;3924;48.830;9.262;2023-07-13T05:49:41;98630.28;;;20.45;54.74
7760;BME280;3924;48.830;9.262;2023-07-13T05:52:08;98647.34;;;20.51;54.63
7760;BME280;3924;48.830;9.262;2023-07-13T05:54:34;98651.88;;;20.59;54.46
7760;BME280;3924;48.830;9.262;2023-07-13T05:57:00;98656.06;;;20.53;54.63
7760;BME280;3924;48.830;9.262;2023-07-13T05:59:27;98656.13;;;20.40;54.47
7760;BME280;3924;48.830;9.262;2023-07-13T06:01:54;98651.78;;;20.39;54.82
7760;BME280;3924;48.830;9.262;2023-07-13T06:04:20;98657.72;;;20.41;54.83
7760;BME280;3924;48.830;9.262;2023-07-13T06:06:47;98655.41;;;20.43;54.84
7760;BME280;3924;48.830;9.262;2023-07-13T06:09:13;98660.44;;;20.54;54.48
7760;BME280;3924;48.830;9.262;2023-07-13T06:11:40;98661.56;;;20.68;54.34
7760;BME280;3924;48.830;9.262;2023-07-13T06:14:06;98658.63;;;20.77;53.59
7760;BME280;3924;48.830;9.262;2023-07-13T06:16:33;98661.72;;;20.91;53.60
7760;BME280;3924;48.830;9.262;2023-07-13T06:18:59;98667.91;;;21.04;53.05
7760;BME280;3924;48.830;9.262;2023-07-13T06:21:26;98671.59;;;21.27;53.02
7760;BME280;3924;48.830;9.262;2023-07-13T06:23:53;98672.94;;;21.53;52.21
7760;BME280;3924;48.830;9.262;2023-07-13T06:26:20;98668.31;;;21.76;51.71
7760;BME280;3924;48.830;9.262;2023-07-13T06:28:47;98670.19;;;21.72;51.81
7760;BME280;3924;48.830;9.262;2023-07-13T06:31:14;98684.41;;;21.74;51.77
7760;BME280;3924;48.830;9.262;2023-07-13T06:33:42;98681.75;;;21.78;51.65
7760;BME280;3924;48.830;9.262;2023-07-13T06:36:08;98688.00;;;21.55;52.21
7760;BME280;3924;48.830;9.262;2023-07-13T06:38:36;98693.38;;;21.33;52.59
7760;BME280;3924;48.830;9.262;2023-07-13T06:41:04;98688.25;;;21.31;52.68
7760;BME280;3924;48.830;9.262;2023-07-13T06:43:31;98700.31;;;21.62;51.89
7760;BME280;3924;48.830;9.262;2023-07-13T06:45:58;98702.94;;;21.93;51.04
7760;BME280;3924;48.830;9.262;2023-07-13T06:48:25;98693.75;;;22.28;50.70
7760;BME280;3924;48.830;9.262;2023-07-13T06:50:51;98703.53;;;22.67;49.76
7760;BME280;3924;48.830;9.262;2023-07-13T06:53:20;98700.78;;;22.90;49.07
7760;BME280;3924;48.830;9.262;2023-07-13T06:55:47;98705.00;;;23.07;48.64
7760;BME280;3924;48.830;9.262;2023-07-13T06:58:16;98707.75;;;22.84;49.20
7760;BME280;3924;48.830;9.262;2023-07-13T07:00:43;98703.72;;;22.78;49.18
7760;BME280;3924;48.830;9.262;2023-07-13T07:03:10;98703.50;;;22.87;49.09
7760;BME280;3924;48.830;9.262;2023-07-13T07:05:36;98710.28;;;22.70;49.38
7760;BME280;3924;48.830;9.262;2023-07-13T07:08:04;98703.47;;;22.64;49.41
7760;BME280;3924;48.830;9.262;2023-07-13T07:10:30;98708.78;;;22.73;49.04
7760;BME280;3924;48.830;9.262;2023-07-13T07:12:57;98714.47;;;22.60;49.24
7760;BME280;3924;48.830;9.262;2023-07-13T07:15:25;98718.28;;;22.52;48.92
7760;BME280;3924;48.830;9.262;2023-07-13T07:17:51;98718.28;;;22.52;49.29
7760;BME280;3924;48.830;9.262;2023-07-13T07:20:18;98712.00;;;22.55;48.98
7760;BME280;3924;48.830;9.262;2023-07-13T07:22:44;98709.25;;;22.55;48.75
7760;BME280;3924;48.830;9.262;2023-07-13T07:25:11;98715.81;;;22.70;48.29
7760;BME280;3924;48.830;9.262;2023-07-13T07:27:38;98717.88;;;22.73;47.99
7760;BME280;3924;48.830;9.262;2023-07-13T07:30:08;98716.63;;;22.71;47.93
7760;BME280;3924;48.830;9.262;2023-07-13T07:32:37;98722.16;;;22.71;47.88
7760;BME280;3924;48.830;9.262;2023-07-13T07:35:07;98715.06;;;22.92;47.44
7760;BME280;3924;48.830;9.262;2023-07-13T07:37:33;98712.34;;;22.96;47.28
7760;BME280;3924;48.830;9.262;2023-07-13T07:40:03;98713.66;;;23.06;46.82
7760;BME280;3924;48.830;9.262;2023-07-13T07:42:33;98711.47;;;23.18;46.79
7760;BME280;3924;48.830;9.262;2023-07-13T07:45:00;98704.13;;;23.56;45.88
7760;BME280;3924;48.830;9.262;2023-07-13T07:47:27;98708.31;;;23.73;45.64
7760;BME280;3924;48.830;9.262;2023-07-13T07:49:54;98713.91;;;23.77;45.53
7760;BME280;3924;48.830;9.262;2023-07-13T07:52:21;98710.81;;;23.82;45.04
7760;BME280;3924;48.830;9.262;2023-07-13T07:54:47;98721.78;;;23.74;45.23
7760;BME280;3924;48.830;9.262;2023-07-13T07:57:17;98721.44;;;23.50;45.69
7760;BME280;3924;48.830;9.262;2023-07-13T08:00:03;98712.16;;;23.65;45.20
7760;BME280;3924;48.830;9.262;2023-07-13T08:02:33;98712.41;;;23.83;44.91
7760;BME280;3924;48.830;9.262;2023-07-13T08:05:03;98720.81;;;23.93;44.69
7760;BME280;3924;48.830;9.262;2023-07-13T08:07:32;98721.97;;;23.89;44.59
7760;BME280;3924;48.830;9.262;2023-07-13T08:09:59;98717.16;;;23.86;44.59
7760;BME280;3924;48.830;9.262;2023-07-13T08:12:26;98721.44;;;23.80;44.21
7760;BME280;3924;48.830;9.262;2023-07-13T08:14:55;98719.75;;;23.71;44.47
7760;BME280;3924;48.830;9.262;2023-07-13T08:17:24;98719.44;;;23.77;44.29
7760;BME280;3924;48.830;9.262;2023-07-13T08:19:51;98719.03;;;23.74;44.12
7760;BME280;3924;48.830;9.262;2023-07-13T08:22:18;98721.91;;;23.85;43.68
7760;BME280;3924;48.830;9.262;2023-07-13T08:24:44;98728.34;;;23.93;43.48
7760;BME280;3924;48.830;9.262;2023-07-13T08:27:11;98725.19;;;23.94;43.35
7760;BME280;3924;48.830;9.262;2023-07-13T08:29:39;98726.03;;;23.98;43.16
7760;BME280;3924;48.830;9.262;2023-07-13T08:32:06;98730.09;;;24.08;42.90
7760;BME280;3924;48.830;9.262;2023-07-13T08:34:36;98733.31;;;24.14;42.67
7760;BME280;3924;48.830;9.262;2023-07-13T08:37:02;98729.34;;;24.11;42.59
7760;BME280;3924;48.830;9.262;2023-07-13T08:39:33;98728.84;;;24.36;41.93
7760;BME280;3924;48.830;9.262;2023-07-13T08:44:57;98729.75;;;24.47;42.03
7760;BME280;3924;48.830;9.262;2023-07-13T08:47:31;98729.22;;;24.71;41.27
7760;BME280;3924;48.830;9.262;2023-07-13T08:50:02;98729.34;;;24.89;40.83
7760;BME280;3924;48.830;9.262;2023-07-13T08:52:39;98726.66;;;25.00;40.82
7760;BME280;3924;48.830;9.262;2023-07-13T08:55:25;98727.19;;;25.16;40.44
7760;BME280;3924;48.830;9.262;2023-07-13T08:57:59;98732.03;;;25.26;40.27
7760;BME280;3924;48.830;9.262;2023-07-13T09:00:43;98730.47;;;25.29;40.06
7760;BME280;3924;48.830;9.262;2023-07-13T09:03:20;98726.50;;;25.26;40.51
7760;BME280;3924;48.830;9.262;2023-07-13T09:05:52;98732.88;;;25.34;39.91
7760;BME280;3924;48.830;9.262;2023-07-13T09:08:38;98736.63;;;25.04;40.44
7760;BME280;3924;48.830;9.262;2023-07-13T09:13:51;98728.13;;;25.34;40.07
7760;BME280;3924;48.830;9.262;2023-07-13T09:16:23;98729.91;;;25.71;39.37
7760;BME280;3924;48.830;9.262;2023-07-13T09:18:54;98720.50;;;25.94;39.07
7760;BME280;3924;48.830;9.262;2023-07-13T09:21:35;98733.81;;;25.56;39.22
7760;BME280;3924;48.830;9.262;2023-07-13T09:24:38;98734.13;;;25.44;39.59
7760;BME280;3924;48.830;9.262;2023-07-13T09:27:14;98733.16;;;25.15;39.79
7760;BME280;3924;48.830;9.262;2023-07-13T09:32:43;98743.78;;;25.05;39.52
7760;BME280;3924;48.830;9.262;2023-07-13T09:35:12;98732.03;;;25.26;39.29
7760;BME280;3924;48.830;9.262;2023-07-13T09:37:43;98726.66;;;25.55;39.25
7760;BME280;3924;48.830;9.262;2023-07-13T09:40:17;98730.50;;;25.32;39.32
7760;BME280;3924;48.830;9.262;2023-07-13T09:42:46;98723.59;;;25.08;39.77
7760;BME280;3924;48.830;9.262;2023-07-13T09:45:17;98721.00;;;25.33;39.75
7760;BME280;3924;48.830;9.262;2023-07-13T09:47:59;98724.78;;;25.73;38.79
7760;BME280;3924;48.830;9.262;2023-07-13T09:50:26;98721.69;;;25.92;38.11
7760;BME280;3924;48.830;9.262;2023-07-13T09:52:55;98725.22;;;25.79;38.71
7760;BME280;3924;48.830;9.262;2023-07-13T09:57:57;98720.06;;;25.77;38.71
7760;BME280;3924;48.830;9.262;2023-07-13T10:00:27;98726.91;;;26.05;38.07
7760;BME280;3924;48.830;9.262;2023-07-13T10:03:09;98722.19;;;26.16;37.77
7760;BME280;3924;48.830;9.262;2023-07-13T10:05:43;98717.41;;;26.13;37.91
7760;BME280;3924;48.830;9.262;2023-07-13T10:08:27;98715.41;;;26.10;37.83
7760;BME280;3924;48.830;9.262;2023-07-13T10:13:36;98711.84;;;26.20;37.68
7760;BME280;3924;48.830;9.262;2023-07-13T10:16:06;98721.41;;;26.15;37.57
7760;BME280;3924;48.830;9.262;2023-07-13T10:18:39;98713.41;;;26.03;37.95
7760;BME280;3924;48.830;9.262;2023-07-13T10:21:17;98718.22;;;26.28;37.52
7760;BME280;3924;48.830;9.262;2023-07-13T10:23:57;98720.72;;;26.72;36.80
7760;BME280;3924;48.830;9.262;2023-07-13T10:26:30;98719.88;;;26.36;37.22
7760;BME280;3924;48.830;9.262;2023-07-13T10:29:02;98718.66;;;26.37;37.45
7760;BME280;3924;48.830;9.262;2023-07-13T10:31:30;98705.56;;;26.37;37.13
7760;BME280;3924;48.830;9.262;2023-07-13T10:33:57;98708.38;;;26.48;37.04
7760;BME280;3924;48.830;9.262;2023-07-13T10:36:45;98713.56;;;26.64;37.02
7760;BME280;3924;48.830;9.262;2023-07-13T10:39:17;98706.44;;;26.84;36.66
7760;BME280;3924;48.830;9.262;2023-07-13T10:41:47;98710.41;;;26.97;36.45
7760;BME280;3924;48.830;9.262;2023-07-13T10:44:30;98698.47;;;27.15;36.04
7760;BME280;3924;48.830;9.262;2023-07-13T10:47:08;98709.59;;;26.93;36.34
7760;BME280;3924;48.830;9.262;2023-07-13T10:49:40;98715.06;;;26.22;37.53
7760;BME280;3924;48.830;9.262;2023-07-13T10:52:46;98708.88;;;25.70;37.93
7760;BME280;3924;48.830;9.262;2023-07-13T10:55:36;98719.84;;;25.42;38.77
7760;BME280;3924;48.830;9.262;2023-07-13T10:58:19;98718.97;;;25.27;38.94
7760;BME280;3924;48.830;9.262;2023-07-13T11:00:52;98712.97;;;25.21;38.72
7760;BME280;3924;48.830;9.262;2023-07-13T11:03:22;98707.06;;;25.26;38.54
7760;BME280;3924;48.830;9.262;2023-07-13T11:05:51;98706.72;;;25.38;38.34
7760;BME280;3924;48.830;9.262;2023-07-13T11:08:34;98708.81;;;25.59;38.12
7760;BME280;3924;48.830;9.262;2023-07-13T11:11:04;98710.06;;;25.69;38.00
7760;BME280;3924;48.830;9.262;2023-07-13T11:18:48;98696.78;;;26.21;37.17
7760;BME280;3924;48.830;9.262;2023-07-13T11:21:23;98688.94;;;26.73;36.44
7760;BME280;3924;48.830;9.262;2023-07-13T11:24:04;98688.13;;;26.83;36.27
7760;BME280;3924;48.830;9.262;2023-07-13T11:31:39;98680.19;;;26.99;36.27
7760;BME280;3924;48.830;9.262;2023-07-13T11:34:12;98675.41;;;27.00;36.20
7760;BME280;3924;48.830;9.262;2023-07-13T11:36:45;98680.19;;;26.99;36.05
7760;BME280;3924;48.830;9.262;2023-07-13T11:41:57;98680.97;;;27.11;35.78
7760;BME280;3924;48.830;9.262;2023-07-13T11:44:25;98677.78;;;26.48;36.51
7760;BME280;3924;48.830;9.262;2023-07-13T11:46:57;98669.75;;;26.07;37.46
7760;BME280;3924;48.830;9.262;2023-07-13T11:49:30;98676.94;;;26.30;37.18
7760;BME280;3924;48.830;9.262;2023-07-13T11:51:59;98679.38;;;26.60;36.31
7760;BME280;3924;48.830;9.262;2023-07-13T11:54:29;98681.38;;;26.77;36.13
7760;BME280;3924;48.830;9.262;2023-07-13T11:59:55;98686.94;;;26.98;35.97
7760;BME280;3924;48.830;9.262;2023-07-13T12:02:34;98683.31;;;27.41;35.18
7760;BME280;3924;48.830;9.262;2023-07-13T12:05:04;98675.63;;;27.77;34.78
7760;BME280;3924;48.830;9.262;2023-07-13T12:07:33;98681.94;;;27.95;34.48
7760;BME280;3924;48.830;9.262;2023-07-13T12:10:02;98680.38;;;27.87;34.73
7760;BME280;3924;48.830;9.262;2023-07-13T12:12:29;98684.06;;;27.45;35.02
7760;BME280;3924;48.830;9.262;2023-07-13T12:14:56;98684.16;;;26.91;35.86
7760;BME280;3924;48.830;9.262;2023-07-13T12:17:24;98684.16;;;27.09;35.32
7760;BME280;3924;48.830;9.262;2023-07-13T12:19:52;98680.97;;;27.00;35.20
7760;BME280;3924;48.830;9.262;2023-07-13T12:22:20;98687.31;;;27.00;35.57
7760;BME280;3924;48.830;9.262;2023-07-13T12:24:47;98689.72;;;26.84;35.73
7760;BME280;3924;48.830;9.262;2023-07-13T12:27:27;98684.56;;;26.65;35.97
7760;BME280;3924;48.830;9.262;2023-07-13T12:30:21;98682.09;;;26.28;36.39
7760;BME280;3924;48.830;9.262;2023-07-13T12:35:28;98674.06;;;25.90;36.59
7760;BME280;3924;48.830;9.262;2023-07-13T12:37:57;98676.50;;;26.13;36.27
7760;BME280;3924;48.830;9.262;2023-07-13T12:40:32;98675.81;;;26.70;35.47
7760;BME280;3924;48.830;9.262;2023-07-13T12:43:03;98677.34;;;27.35;34.67
7760;BME280;3924;48.830;9.262;2023-07-13T12:45:33;98684.91;;;27.24;34.92
7760;BME280;3924;48.830;9.262;2023-07-13T12:48:06;98669.81;;;27.29;34.65
7760;BME280;3924;48.830;9.262;2023-07-13T12:50:45;98675.31;;;27.53;34.48
7760;BME280;3924;48.830;9.262;2023-07-13T12:53:15;98664.03;;;27.86;33.78
7760;BME280;3924;48.830;9.262;2023-07-13T12:55:45;98668.81;;;27.85;33.98
7760;BME280;3924;48.830;9.262;2023-07-13T12:58:20;98670.41;;;27.86;33.85
7760;BME280;3924;48.830;9.262;2023-07-13T13:00:50;98668.00;;;27.95;33.57
7760;BME280;3924;48.830;9.262;2023-07-13T13:06:20;98670.31;;;28.04;33.92
7760;BME280;3924;48.830;9.262;2023-07-13T13:08:50;98667.88;;;28.17;33.35
7760;BME280;3924;48.830;9.262;2023-07-13T13:11:19;98665.41;;;28.26;33.01
7760;BME280;3924;48.830;9.262;2023-07-13T13:13:46;98660.13;;;28.49;32.58
7760;BME280;3924;48.830;9.262;2023-07-13T13:16:46;98650.19;;;28.45;33.08
7760;BME280;3924;48.830;9.262;2023-07-13T13:19:19;98651.63;;;28.64;32.44
7760;BME280;3924;48.830;9.262;2023-07-13T13:21:48;98659.03;;;28.81;32.18
7760;BME280;3924;48.830;9.262;2023-07-13T13:24:21;98658.91;;;28.50;32.28
7760;BME280;3924;48.830;9.262;2023-07-13T13:26:50;98655.13;;;28.16;32.92
7760;BME280;3924;48.830;9.262;2023-07-13T13:29:19;98661.97;;;28.04;32.95
7760;BME280;3924;48.830;9.262;2023-07-13T13:31:47;98662.28;;;28.17;32.69
7760;BME280;3924;48.830;9.262;2023-07-13T13:34:15;98663.06;;;28.21;32.54
7760;BME280;3924;48.830;9.262;2023-07-13T13:36:44;98665.03;;;28.20;32.54
7760;BME280;3924;48.830;9.262;2023-07-13T13:39:33;98655.19;;;28.08;32.38
7760;BME280;3924;48.830;9.262;2023-07-13T13:42:00;98650.34;;;28.13;32.47
7760;BME280;3924;48.830;9.262;2023-07-13T13:44:27;98651.19;;;28.10;32.27
7760;BME280;3924;48.830;9.262;2023-07-13T13:46:55;98654.50;;;27.83;32.47
7760;BME280;3924;48.830;9.262;2023-07-13T13:49:26;98654.97;;;27.71;32.70
7760;BME280;3924;48.830;9.262;2023-07-13T13:51:53;98658.09;;;27.84;32.57
7760;BME280;3924;48.830;9.262;2023-07-13T13:54:22;98650.03;;;28.03;32.15
7760;BME280;3924;48.830;9.262;2023-07-13T13:56:50;98657.88;;;28.19;32.41
7760;BME280;3924;48.830;9.262;2023-07-13T13:59:18;98651.09;;;28.20;31.92
7760;BME280;3924;48.830;9.262;2023-07-13T14:01:47;98645.44;;;28.38;32.00
7760;BME280;3924;48.830;9.262;2023-07-13T14:04:20;98646.06;;;28.01;32.23
7760;BME280;3924;48.830;9.262;2023-07-13T14:06:48;98651.28;;;27.95;32.10
7760;BME280;3924;48.830;9.262;2023-07-13T14:09:17;98651.19;;;28.06;32.24